Aviation Digital Data Service (ADDS)

Output produced by METARs form (1856 UTC 19 September 2017)
found at http://www.aviationweather.gov/adds/metars/
 
KALN 191850Z 26006KT 10SM SCT035 29/19 A2992
KALN 191750Z 12005KT 10SM SKC 28/21 A2994
KALN 191650Z 12005KT 10SM SKC 26/21 A2996
KALN 191550Z 12005KT 10SM SKC 24/21 A2998
KALN 191450Z 00000KT 10SM SKC 21/21 A2998
KALN 191420Z 00000KT 7SM SKC 20/20 A2998
KALN 191350Z 00000KT 11/2SM BR OVC001 19/19 A2998